Hvidovre, Denmark
Current Conditions -  °F | °C
As of 5:50 PM on Monday 22 Dec 2014 (Local Time) from EKCH Reporting Station
Scattered Clouds Scattered Clouds  
Wind Chill:   Ceiling: Unl
Heat Index:   Visibility: 6mi
Dew Point:   Wind: 14mph
Humidity: 87%   Direction: 260°W
Pressure: 29.53"   Gusts: NA
Location:  55.66°N, 12.47°E
Report Text: EKCH 221650Z 26012KT 9999 SCT020 SCT034 07/05 Q1000 NOSIG
Loading
Personal Weather Stations






























Interactive Weather Map New forecast layout! Learn more

10-Day Weather Forecast

Advertisements
Track Severe Weather on mobile